sensor_id;sensor_type;location;lat;lon;timestamp;temperature;humidity
3876;DHT22;1953;51.222;6.624;2023-09-12T00:02:42;22.40;1.00
3876;DHT22;1953;51.222;6.624;2023-09-12T00:07:35;22.30;1.00
3876;DHT22;1953;51.222;6.624;2023-09-12T00:12:22;22.30;1.00
3876;DHT22;1953;51.222;6.624;2023-09-12T00:17:54;22.20;1.00
3876;DHT22;1953;51.222;6.624;2023-09-12T00:22:37;22.10;1.00
3876;DHT22;1953;51.222;6.624;2023-09-12T00:27:20;22.10;1.00
3876;DHT22;1953;51.222;6.624;2023-09-12T00:32:04;22.20;1.00
3876;DHT22;1953;51.222;6.624;2023-09-12T00:36:48;22.30;1.00
3876;DHT22;1953;51.222;6.624;2023-09-12T00:41:30;22.30;1.00
3876;DHT22;1953;51.222;6.624;2023-09-12T00:46:15;22.20;1.00
3876;DHT22;1953;51.222;6.624;2023-09-12T00:51:00;22.20;1.00
3876;DHT22;1953;51.222;6.624;2023-09-12T00:55:48;22.20;1.00
3876;DHT22;1953;51.222;6.624;2023-09-12T01:00:33;22.20;1.00
3876;DHT22;1953;51.222;6.624;2023-09-12T01:05:16;22.20;1.00
3876;DHT22;1953;51.222;6.624;2023-09-12T01:09:58;22.00;1.00
3876;DHT22;1953;51.222;6.624;2023-09-12T01:14:42;21.90;1.00
3876;DHT22;1953;51.222;6.624;2023-09-12T01:19:25;21.90;1.00
3876;DHT22;1953;51.222;6.624;2023-09-12T01:24:32;21.90;1.00
3876;DHT22;1953;51.222;6.624;2023-09-12T01:29:22;22.00;1.00
3876;DHT22;1953;51.222;6.624;2023-09-12T01:34:09;22.00;1.00
3876;DHT22;1953;51.222;6.624;2023-09-12T01:38:52;21.90;1.00
3876;DHT22;1953;51.222;6.624;2023-09-12T01:43:36;21.80;1.00
3876;DHT22;1953;51.222;6.624;2023-09-12T01:48:40;21.90;1.00
3876;DHT22;1953;51.222;6.624;2023-09-12T01:53:23;21.80;1.00
3876;DHT22;1953;51.222;6.624;2023-09-12T01:58:06;21.80;1.00
3876;DHT22;1953;51.222;6.624;2023-09-12T02:03:08;21.80;1.00
3876;DHT22;1953;51.222;6.624;2023-09-12T02:07:52;21.90;1.00
3876;DHT22;1953;51.222;6.624;2023-09-12T02:12:36;21.90;1.00
3876;DHT22;1953;51.222;6.624;2023-09-12T02:17:19;21.90;1.00
3876;DHT22;1953;51.222;6.624;2023-09-12T02:22:02;21.90;1.00
3876;DHT22;1953;51.222;6.624;2023-09-12T02:26:49;21.80;1.00
3876;DHT22;1953;51.222;6.624;2023-09-12T02:36:58;21.70;1.00
3876;DHT22;1953;51.222;6.624;2023-09-12T02:41:41;21.80;1.00
3876;DHT22;1953;51.222;6.624;2023-09-12T02:46:25;21.80;1.00
3876;DHT22;1953;51.222;6.624;2023-09-12T02:51:25;21.80;1.00
3876;DHT22;1953;51.222;6.624;2023-09-12T02:56:22;21.70;1.00
3876;DHT22;1953;51.222;6.624;2023-09-12T03:01:27;21.80;1.00
3876;DHT22;1953;51.222;6.624;2023-09-12T03:06:10;21.80;1.00
3876;DHT22;1953;51.222;6.624;2023-09-12T03:10:55;21.70;1.00
3876;DHT22;1953;51.222;6.624;2023-09-12T03:15:38;21.80;1.00
3876;DHT22;1953;51.222;6.624;2023-09-12T03:20:22;21.80;1.00
3876;DHT22;1953;51.222;6.624;2023-09-12T03:25:05;21.80;1.00
3876;DHT22;1953;51.222;6.624;2023-09-12T03:29:48;21.90;1.00
3876;DHT22;1953;51.222;6.624;2023-09-12T03:34:30;21.90;1.00
3876;DHT22;1953;51.222;6.624;2023-09-12T03:39:14;21.90;1.00
3876;DHT22;1953;51.222;6.624;2023-09-12T03:43:57;21.80;1.00
3876;DHT22;1953;51.222;6.624;2023-09-12T03:48:39;21.70;1.00
3876;DHT22;1953;51.222;6.624;2023-09-12T03:53:22;21.70;1.00
3876;DHT22;1953;51.222;6.624;2023-09-12T03:58:06;21.70;1.00
3876;DHT22;1953;51.222;6.624;2023-09-12T04:02:48;21.70;1.00
3876;DHT22;1953;51.222;6.624;2023-09-12T04:07:31;21.70;1.00
3876;DHT22;1953;51.222;6.624;2023-09-12T04:12:13;21.80;1.00
3876;DHT22;1953;51.222;6.624;2023-09-12T04:16:57;21.70;1.00
3876;DHT22;1953;51.222;6.624;2023-09-12T04:21:40;21.80;1.00
3876;DHT22;1953;51.222;6.624;2023-09-12T04:26:22;21.80;1.00
3876;DHT22;1953;51.222;6.624;2023-09-12T04:31:05;21.70;1.00
3876;DHT22;1953;51.222;6.624;2023-09-12T04:35:49;21.50;1.00
3876;DHT22;1953;51.222;6.624;2023-09-12T04:40:31;21.40;1.00
3876;DHT22;1953;51.222;6.624;2023-09-12T04:45:14;21.50;1.00
3876;DHT22;1953;51.222;6.624;2023-09-12T04:49:56;21.60;1.00
3876;DHT22;1953;51.222;6.624;2023-09-12T04:54:40;21.60;1.00
3876;DHT22;1953;51.222;6.624;2023-09-12T04:59:23;21.60;1.00
3876;DHT22;1953;51.222;6.624;2023-09-12T05:04:06;21.40;1.00
3876;DHT22;1953;51.222;6.624;2023-09-12T05:08:48;21.40;1.00
3876;DHT22;1953;51.222;6.624;2023-09-12T05:13:32;21.40;1.00
3876;DHT22;1953;51.222;6.624;2023-09-12T05:18:15;21.30;1.00
3876;DHT22;1953;51.222;6.624;2023-09-12T05:23:01;21.30;1.00
3876;DHT22;1953;51.222;6.624;2023-09-12T05:27:43;21.20;1.00
3876;DHT22;1953;51.222;6.624;2023-09-12T05:32:27;21.10;1.00
3876;DHT22;1953;51.222;6.624;2023-09-12T05:37:09;21.20;1.00
3876;DHT22;1953;51.222;6.624;2023-09-12T05:41:52;21.20;1.00
3876;DHT22;1953;51.222;6.624;2023-09-12T05:46:34;21.20;1.00
3876;DHT22;1953;51.222;6.624;2023-09-12T05:51:18;21.10;1.00
3876;DHT22;1953;51.222;6.624;2023-09-12T05:56:01;21.00;1.00
3876;DHT22;1953;51.222;6.624;2023-09-12T06:00:44;20.40;1.00
3876;DHT22;1953;51.222;6.624;2023-09-12T06:05:29;20.30;1.00
3876;DHT22;1953;51.222;6.624;2023-09-12T06:10:13;20.20;1.00
3876;DHT22;1953;51.222;6.624;2023-09-12T06:14:55;20.30;1.00
3876;DHT22;1953;51.222;6.624;2023-09-12T06:19:38;20.40;1.00
3876;DHT22;1953;51.222;6.624;2023-09-12T06:24:21;20.50;1.00
3876;DHT22;1953;51.222;6.624;2023-09-12T06:29:06;20.70;1.00
3876;DHT22;1953;51.222;6.624;2023-09-12T06:33:49;20.70;1.00
3876;DHT22;1953;51.222;6.624;2023-09-12T06:38:31;20.80;1.00
3876;DHT22;1953;51.222;6.624;2023-09-12T06:43:14;20.80;1.00
3876;DHT22;1953;51.222;6.624;2023-09-12T06:47:58;21.00;1.00
3876;DHT22;1953;51.222;6.624;2023-09-12T06:52:40;21.00;1.00
3876;DHT22;1953;51.222;6.624;2023-09-12T06:57:23;21.10;1.00
3876;DHT22;1953;51.222;6.624;2023-09-12T07:02:05;21.00;1.00
3876;DHT22;1953;51.222;6.624;2023-09-12T07:06:50;21.00;1.00
3876;DHT22;1953;51.222;6.624;2023-09-12T07:11:33;21.20;1.00
3876;DHT22;1953;51.222;6.624;2023-09-12T07:16:16;21.30;1.00
3876;DHT22;1953;51.222;6.624;2023-09-12T07:20:59;21.40;1.00
3876;DHT22;1953;51.222;6.624;2023-09-12T07:25:43;21.40;1.00
3876;DHT22;1953;51.222;6.624;2023-09-12T07:30:25;21.30;1.00
3876;DHT22;1953;51.222;6.624;2023-09-12T07:35:08;21.40;1.00
3876;DHT22;1953;51.222;6.624;2023-09-12T07:39:51;21.40;1.00
3876;DHT22;1953;51.222;6.624;2023-09-12T07:44:35;21.40;1.00
3876;DHT22;1953;51.222;6.624;2023-09-12T07:49:17;21.50;1.00
3876;DHT22;1953;51.222;6.624;2023-09-12T07:54:00;21.60;1.00
3876;DHT22;1953;51.222;6.624;2023-09-12T07:58:42;21.60;1.00
3876;DHT22;1953;51.222;6.624;2023-09-12T08:03:26;21.60;1.00
3876;DHT22;1953;51.222;6.624;2023-09-12T08:08:09;21.40;1.00
3876;DHT22;1953;51.222;6.624;2023-09-12T08:12:51;21.40;1.00
3876;DHT22;1953;51.222;6.624;2023-09-12T08:17:34;21.40;1.00
3876;DHT22;1953;51.222;6.624;2023-09-12T08:22:18;21.50;1.00
3876;DHT22;1953;51.222;6.624;2023-09-12T08:27:01;21.50;1.00
3876;DHT22;1953;51.222;6.624;2023-09-12T08:31:43;21.60;1.00
3876;DHT22;1953;51.222;6.624;2023-09-12T08:36:28;21.60;1.00
3876;DHT22;1953;51.222;6.624;2023-09-12T08:41:12;21.70;1.00
3876;DHT22;1953;51.222;6.624;2023-09-12T08:45:54;21.70;1.00
3876;DHT22;1953;51.222;6.624;2023-09-12T08:50:37;21.90;1.00
3876;DHT22;1953;51.222;6.624;2023-09-12T08:55:19;22.00;1.00
3876;DHT22;1953;51.222;6.624;2023-09-12T09:00:05;22.10;1.00
3876;DHT22;1953;51.222;6.624;2023-09-12T09:04:50;22.20;1.00
3876;DHT22;1953;51.222;6.624;2023-09-12T09:09:33;22.20;1.00
3876;DHT22;1953;51.222;6.624;2023-09-12T09:14:16;22.30;1.00
3876;DHT22;1953;51.222;6.624;2023-09-12T09:19:01;22.60;1.00
3876;DHT22;1953;51.222;6.624;2023-09-12T09:23:45;22.90;1.00
3876;DHT22;1953;51.222;6.624;2023-09-12T09:28:28;23.00;1.00
3876;DHT22;1953;51.222;6.624;2023-09-12T09:33:11;23.00;1.00
3876;DHT22;1953;51.222;6.624;2023-09-12T09:37:55;23.10;1.00
3876;DHT22;1953;51.222;6.624;2023-09-12T09:42:38;23.20;1.00
3876;DHT22;1953;51.222;6.624;2023-09-12T09:47:20;23.30;1.00
3876;DHT22;1953;51.222;6.624;2023-09-12T09:52:04;23.30;1.00
3876;DHT22;1953;51.222;6.624;2023-09-12T09:56:50;23.30;1.00
3876;DHT22;1953;51.222;6.624;2023-09-12T10:01:34;23.40;1.00
3876;DHT22;1953;51.222;6.624;2023-09-12T10:06:19;23.40;1.00
3876;DHT22;1953;51.222;6.624;2023-09-12T10:11:02;23.50;1.00
3876;DHT22;1953;51.222;6.624;2023-09-12T10:15:47;23.80;1.00
3876;DHT22;1953;51.222;6.624;2023-09-12T10:20:37;23.90;1.00
3876;DHT22;1953;51.222;6.624;2023-09-12T10:25:20;24.10;1.00
3876;DHT22;1953;51.222;6.624;2023-09-12T10:30:05;24.10;1.00
3876;DHT22;1953;51.222;6.624;2023-09-12T10:34:49;24.10;1.00
3876;DHT22;1953;51.222;6.624;2023-09-12T10:39:33;24.20;1.00
3876;DHT22;1953;51.222;6.624;2023-09-12T10:44:17;24.30;1.00
3876;DHT22;1953;51.222;6.624;2023-09-12T10:49:00;24.40;1.00
3876;DHT22;1953;51.222;6.624;2023-09-12T10:53:50;24.40;1.00
3876;DHT22;1953;51.222;6.624;2023-09-12T10:59:10;24.50;1.00
3876;DHT22;1953;51.222;6.624;2023-09-12T11:03:54;24.60;1.00
3876;DHT22;1953;51.222;6.624;2023-09-12T11:08:36;24.70;1.00
3876;DHT22;1953;51.222;6.624;2023-09-12T11:13:20;24.90;1.00
3876;DHT22;1953;51.222;6.624;2023-09-12T11:18:06;25.00;1.00
3876;DHT22;1953;51.222;6.624;2023-09-12T11:22:49;25.10;1.00
3876;DHT22;1953;51.222;6.624;2023-09-12T11:27:32;25.10;1.00
3876;DHT22;1953;51.222;6.624;2023-09-12T11:32:29;25.20;1.00
3876;DHT22;1953;51.222;6.624;2023-09-12T11:37:22;25.20;1.00
3876;DHT22;1953;51.222;6.624;2023-09-12T11:42:07;25.20;1.00
3876;DHT22;1953;51.222;6.624;2023-09-12T11:46:54;25.50;1.00
3876;DHT22;1953;51.222;6.624;2023-09-12T11:51:46;25.70;1.00
3876;DHT22;1953;51.222;6.624;2023-09-12T11:56:31;25.80;1.00
3876;DHT22;1953;51.222;6.624;2023-09-12T12:01:15;25.90;1.00
3876;DHT22;1953;51.222;6.624;2023-09-12T12:05:58;25.90;1.00
3876;DHT22;1953;51.222;6.624;2023-09-12T12:10:41;26.00;1.00
3876;DHT22;1953;51.222;6.624;2023-09-12T12:18:56;26.30;1.00
3876;DHT22;1953;51.222;6.624;2023-09-12T12:23:39;26.50;1.00
3876;DHT22;1953;51.222;6.624;2023-09-12T12:28:21;27.10;1.00
3876;DHT22;1953;51.222;6.624;2023-09-12T12:33:07;27.60;1.00
3876;DHT22;1953;51.222;6.624;2023-09-12T12:37:54;28.00;1.00
3876;DHT22;1953;51.222;6.624;2023-09-12T12:42:39;28.40;1.00
3876;DHT22;1953;51.222;6.624;2023-09-12T12:47:23;28.90;1.00
3876;DHT22;1953;51.222;6.624;2023-09-12T12:52:08;29.20;1.00
3876;DHT22;1953;51.222;6.624;2023-09-12T12:56:53;28.90;1.00
3876;DHT22;1953;51.222;6.624;2023-09-12T13:01:36;30.00;1.00
3876;DHT22;1953;51.222;6.624;2023-09-12T13:06:19;30.70;1.00
3876;DHT22;1953;51.222;6.624;2023-09-12T13:11:02;31.30;1.00
3876;DHT22;1953;51.222;6.624;2023-09-12T13:15:46;31.30;1.00
3876;DHT22;1953;51.222;6.624;2023-09-12T13:20:28;31.70;1.00
3876;DHT22;1953;51.222;6.624;2023-09-12T13:25:11;31.80;1.00
3876;DHT22;1953;51.222;6.624;2023-09-12T13:29:54;30.90;1.00
3876;DHT22;1953;51.222;6.624;2023-09-12T13:34:37;30.30;1.00
3876;DHT22;1953;51.222;6.624;2023-09-12T13:39:20;30.30;1.00
3876;DHT22;1953;51.222;6.624;2023-09-12T13:44:03;30.30;1.00
3876;DHT22;1953;51.222;6.624;2023-09-12T13:48:45;30.70;1.00
3876;DHT22;1953;51.222;6.624;2023-09-12T13:53:29;30.30;1.00
3876;DHT22;1953;51.222;6.624;2023-09-12T13:58:12;30.30;1.00
3876;DHT22;1953;51.222;6.624;2023-09-12T14:02:55;29.90;1.00
3876;DHT22;1953;51.222;6.624;2023-09-12T14:07:37;30.00;1.00
3876;DHT22;1953;51.222;6.624;2023-09-12T14:12:22;30.50;1.00
3876;DHT22;1953;51.222;6.624;2023-09-12T14:17:04;31.00;1.00
3876;DHT22;1953;51.222;6.624;2023-09-12T14:21:47;32.00;1.00
3876;DHT22;1953;51.222;6.624;2023-09-12T14:26:29;31.40;1.00
3876;DHT22;1953;51.222;6.624;2023-09-12T14:31:13;31.40;1.00
3876;DHT22;1953;51.222;6.624;2023-09-12T14:35:57;31.60;1.00
3876;DHT22;1953;51.222;6.624;2023-09-12T14:40:39;32.00;1.00
3876;DHT22;1953;51.222;6.624;2023-09-12T14:45:22;32.10;1.00
3876;DHT22;1953;51.222;6.624;2023-09-12T14:50:08;32.30;1.00
3876;DHT22;1953;51.222;6.624;2023-09-12T14:54:51;32.60;1.00
3876;DHT22;1953;51.222;6.624;2023-09-12T14:59:34;32.00;1.00
3876;DHT22;1953;51.222;6.624;2023-09-12T15:04:16;32.20;1.00
3876;DHT22;1953;51.222;6.624;2023-09-12T15:09:00;31.80;1.00
3876;DHT22;1953;51.222;6.624;2023-09-12T15:13:43;31.00;1.00
3876;DHT22;1953;51.222;6.624;2023-09-12T15:18:27;30.20;1.00
3876;DHT22;1953;51.222;6.624;2023-09-12T15:23:09;29.90;1.00
3876;DHT22;1953;51.222;6.624;2023-09-12T15:27:53;29.60;1.00
3876;DHT22;1953;51.222;6.624;2023-09-12T15:32:36;29.40;1.00
3876;DHT22;1953;51.222;6.624;2023-09-12T15:37:18;29.30;1.00
3876;DHT22;1953;51.222;6.624;2023-09-12T15:42:01;29.40;1.00
3876;DHT22;1953;51.222;6.624;2023-09-12T15:46:45;29.50;1.00
3876;DHT22;1953;51.222;6.624;2023-09-12T15:51:28;29.30;1.00
3876;DHT22;1953;51.222;6.624;2023-09-12T15:56:10;29.00;1.00
3876;DHT22;1953;51.222;6.624;2023-09-12T16:00:53;28.70;1.00
3876;DHT22;1953;51.222;6.624;2023-09-12T16:05:37;28.50;1.00
3876;DHT22;1953;51.222;6.624;2023-09-12T16:10:20;28.50;1.00
3876;DHT22;1953;51.222;6.624;2023-09-12T16:15:03;28.40;1.00
3876;DHT22;1953;51.222;6.624;2023-09-12T16:19:45;28.20;1.00
3876;DHT22;1953;51.222;6.624;2023-09-12T16:24:29;28.00;1.00
3876;DHT22;1953;51.222;6.624;2023-09-12T16:29:12;27.80;1.00
3876;DHT22;1953;51.222;6.624;2023-09-12T16:33:54;27.60;1.00
3876;DHT22;1953;51.222;6.624;2023-09-12T16:38:37;27.40;1.00
3876;DHT22;1953;51.222;6.624;2023-09-12T16:43:21;27.20;1.00
3876;DHT22;1953;51.222;6.624;2023-09-12T16:48:04;27.00;1.00
3876;DHT22;1953;51.222;6.624;2023-09-12T16:52:47;27.00;1.00
3876;DHT22;1953;51.222;6.624;2023-09-12T16:57:30;26.80;1.00
3876;DHT22;1953;51.222;6.624;2023-09-12T17:02:14;26.70;1.00
3876;DHT22;1953;51.222;6.624;2023-09-12T17:06:56;26.80;1.00
3876;DHT22;1953;51.222;6.624;2023-09-12T17:11:39;26.80;1.00
3876;DHT22;1953;51.222;6.624;2023-09-12T17:16:21;26.80;1.00
3876;DHT22;1953;51.222;6.624;2023-09-12T17:21:05;26.80;1.00
3876;DHT22;1953;51.222;6.624;2023-09-12T17:25:48;26.80;1.00
3876;DHT22;1953;51.222;6.624;2023-09-12T17:30:30;26.70;1.00
3876;DHT22;1953;51.222;6.624;2023-09-12T17:35:13;26.50;1.00
3876;DHT22;1953;51.222;6.624;2023-09-12T17:39:57;26.40;1.00
3876;DHT22;1953;51.222;6.624;2023-09-12T17:44:39;26.30;1.00
3876;DHT22;1953;51.222;6.624;2023-09-12T17:49:22;26.40;1.00
3876;DHT22;1953;51.222;6.624;2023-09-12T17:54:05;26.30;1.00
3876;DHT22;1953;51.222;6.624;2023-09-12T17:58:49;26.20;1.00
3876;DHT22;1953;51.222;6.624;2023-09-12T18:03:31;26.20;1.00
3876;DHT22;1953;51.222;6.624;2023-09-12T18:08:14;26.20;1.00
3876;DHT22;1953;51.222;6.624;2023-09-12T18:12:56;26.10;1.00
3876;DHT22;1953;51.222;6.624;2023-09-12T18:17:40;25.90;1.00
3876;DHT22;1953;51.222;6.624;2023-09-12T18:22:22;25.70;1.00
3876;DHT22;1953;51.222;6.624;2023-09-12T18:27:05;25.50;1.00
3876;DHT22;1953;51.222;6.624;2023-09-12T18:31:48;25.10;1.00
3876;DHT22;1953;51.222;6.624;2023-09-12T18:36:32;24.80;1.00
3876;DHT22;1953;51.222;6.624;2023-09-12T18:41:15;24.60;1.00
3876;DHT22;1953;51.222;6.624;2023-09-12T18:45:57;24.40;1.00
3876;DHT22;1953;51.222;6.624;2023-09-12T18:50:40;24.30;1.00
3876;DHT22;1953;51.222;6.624;2023-09-12T18:55:26;24.40;1.00
3876;DHT22;1953;51.222;6.624;2023-09-12T19:00:10;24.20;1.00
3876;DHT22;1953;51.222;6.624;2023-09-12T19:04:52;24.10;1.00
3876;DHT22;1953;51.222;6.624;2023-09-12T19:09:37;24.00;1.00
3876;DHT22;1953;51.222;6.624;2023-09-12T19:14:21;24.00;1.00
3876;DHT22;1953;51.222;6.624;2023-09-12T19:19:03;23.90;1.00
3876;DHT22;1953;51.222;6.624;2023-09-12T19:23:46;23.80;1.00
3876;DHT22;1953;51.222;6.624;2023-09-12T19:28:29;23.70;1.00
3876;DHT22;1953;51.222;6.624;2023-09-12T19:33:13;23.70;1.00
3876;DHT22;1953;51.222;6.624;2023-09-12T19:37:55;23.70;1.00
3876;DHT22;1953;51.222;6.624;2023-09-12T19:42:42;23.70;1.00
3876;DHT22;1953;51.222;6.624;2023-09-12T19:47:25;23.60;1.00
3876;DHT22;1953;51.222;6.624;2023-09-12T19:52:09;23.60;1.00
3876;DHT22;1953;51.222;6.624;2023-09-12T19:56:51;23.60;1.00
3876;DHT22;1953;51.222;6.624;2023-09-12T20:01:34;23.60;1.00
3876;DHT22;1953;51.222;6.624;2023-09-12T20:06:16;23.60;1.00
3876;DHT22;1953;51.222;6.624;2023-09-12T20:11:06;23.50;1.00
3876;DHT22;1953;51.222;6.624;2023-09-12T20:15:48;23.40;1.00
3876;DHT22;1953;51.222;6.624;2023-09-12T20:20:31;23.40;1.00
3876;DHT22;1953;51.222;6.624;2023-09-12T20:25:13;23.40;1.00
3876;DHT22;1953;51.222;6.624;2023-09-12T20:29:57;23.30;1.00
3876;DHT22;1953;51.222;6.624;2023-09-12T20:34:41;23.20;1.00
3876;DHT22;1953;51.222;6.624;2023-09-12T20:39:25;23.10;1.00
3876;DHT22;1953;51.222;6.624;2023-09-12T20:44:07;23.00;1.00
3876;DHT22;1953;51.222;6.624;2023-09-12T20:48:51;22.90;1.00
3876;DHT22;1953;51.222;6.624;2023-09-12T20:53:34;22.80;1.00
3876;DHT22;1953;51.222;6.624;2023-09-12T20:58:17;22.70;1.00
3876;DHT22;1953;51.222;6.624;2023-09-12T21:02:59;22.60;1.00
3876;DHT22;1953;51.222;6.624;2023-09-12T21:07:43;22.50;1.00
3876;DHT22;1953;51.222;6.624;2023-09-12T21:12:26;22.20;1.00
3876;DHT22;1953;51.222;6.624;2023-09-12T21:17:08;22.10;1.00
3876;DHT22;1953;51.222;6.624;2023-09-12T21:21:51;21.90;1.00
3876;DHT22;1953;51.222;6.624;2023-09-12T21:26:34;21.70;1.00
3876;DHT22;1953;51.222;6.624;2023-09-12T21:31:17;21.50;1.00
3876;DHT22;1953;51.222;6.624;2023-09-12T21:36:00;21.40;1.00
3876;DHT22;1953;51.222;6.624;2023-09-12T21:40:42;21.30;1.00
3876;DHT22;1953;51.222;6.624;2023-09-12T21:45:26;21.30;1.00
3876;DHT22;1953;51.222;6.624;2023-09-12T21:50:09;21.20;1.00
3876;DHT22;1953;51.222;6.624;2023-09-12T21:54:52;21.20;1.00
3876;DHT22;1953;51.222;6.624;2023-09-12T21:59:35;21.20;1.00
3876;DHT22;1953;51.222;6.624;2023-09-12T22:04:19;21.20;1.00
3876;DHT22;1953;51.222;6.624;2023-09-12T22:09:01;21.20;1.00
3876;DHT22;1953;51.222;6.624;2023-09-12T22:13:45;21.10;1.00
3876;DHT22;1953;51.222;6.624;2023-09-12T22:18:28;20.80;1.00
3876;DHT22;1953;51.222;6.624;2023-09-12T22:23:12;21.20;1.00
3876;DHT22;1953;51.222;6.624;2023-09-12T22:27:54;21.20;1.00
3876;DHT22;1953;51.222;6.624;2023-09-12T22:32:37;21.30;1.00
3876;DHT22;1953;51.222;6.624;2023-09-12T22:37:20;21.30;1.00
3876;DHT22;1953;51.222;6.624;2023-09-12T22:42:04;21.20;1.00
3876;DHT22;1953;51.222;6.624;2023-09-12T22:46:47;21.20;1.00
3876;DHT22;1953;51.222;6.624;2023-09-12T22:51:30;21.20;1.00
3876;DHT22;1953;51.222;6.624;2023-09-12T22:56:12;21.10;1.00
3876;DHT22;1953;51.222;6.624;2023-09-12T23:00:56;21.10;1.00
3876;DHT22;1953;51.222;6.624;2023-09-12T23:05:39;21.00;1.00
3876;DHT22;1953;51.222;6.624;2023-09-12T23:10:21;21.00;1.00
3876;DHT22;1953;51.222;6.624;2023-09-12T23:15:05;21.00;1.00
3876;DHT22;1953;51.222;6.624;2023-09-12T23:19:49;21.00;1.00
3876;DHT22;1953;51.222;6.624;2023-09-12T23:24:32;21.00;1.00
3876;DHT22;1953;51.222;6.624;2023-09-12T23:29:18;21.00;1.00
3876;DHT22;1953;51.222;6.624;2023-09-12T23:34:01;20.90;1.00
3876;DHT22;1953;51.222;6.624;2023-09-12T23:38:46;20.90;1.00
3876;DHT22;1953;51.222;6.624;2023-09-12T23:43:29;20.90;1.00
3876;DHT22;1953;51.222;6.624;2023-09-12T23:48:12;20.80;1.00
3876;DHT22;1953;51.222;6.624;2023-09-12T23:52:56;20.80;1.00
3876;DHT22;1953;51.222;6.624;2023-09-12T23:57:41;20.80;1.00
